sensor_id;sensor_type;location;lat;lon;timestamp;P1;durP1;ratioP1;P2;durP2;ratioP2
21095;SDS011;10706;49.036;12.112;2024-03-07T00:00:07;41.27;;;17.33;;
21095;SDS011;10706;49.036;12.112;2024-03-07T00:02:49;42.27;;;17.07;;
21095;SDS011;10706;49.036;12.112;2024-03-07T00:05:20;44.60;;;17.43;;
21095;SDS011;10706;49.036;12.112;2024-03-07T00:07:50;38.80;;;17.37;;
21095;SDS011;10706;49.036;12.112;2024-03-07T00:10:16;40.77;;;16.63;;
21095;SDS011;10706;49.036;12.112;2024-03-07T00:12:42;44.20;;;17.70;;
21095;SDS011;10706;49.036;12.112;2024-03-07T00:15:10;42.03;;;16.87;;
21095;SDS011;10706;49.036;12.112;2024-03-07T00:17:38;40.07;;;17.13;;
21095;SDS011;10706;49.036;12.112;2024-03-07T00:20:04;39.27;;;16.37;;
21095;SDS011;10706;49.036;12.112;2024-03-07T00:22:35;42.27;;;17.07;;
21095;SDS011;10706;49.036;12.112;2024-03-07T00:25:02;44.50;;;17.63;;
21095;SDS011;10706;49.036;12.112;2024-03-07T00:27:32;41.63;;;17.23;;
21095;SDS011;10706;49.036;12.112;2024-03-07T00:29:58;41.87;;;16.87;;
21095;SDS011;10706;49.036;12.112;2024-03-07T00:32:24;42.47;;;17.57;;
21095;SDS011;10706;49.036;12.112;2024-03-07T00:34:53;38.13;;;16.50;;
21095;SDS011;10706;49.036;12.112;2024-03-07T00:37:18;41.47;;;17.57;;
21095;SDS011;10706;49.036;12.112;2024-03-07T00:39:44;44.27;;;17.90;;
21095;SDS011;10706;49.036;12.112;2024-03-07T00:42:10;41.17;;;17.43;;
21095;SDS011;10706;49.036;12.112;2024-03-07T00:44:36;41.47;;;17.10;;
21095;SDS011;10706;49.036;12.112;2024-03-07T00:47:02;41.77;;;17.27;;
21095;SDS011;10706;49.036;12.112;2024-03-07T00:49:29;41.50;;;16.50;;
21095;SDS011;10706;49.036;12.112;2024-03-07T00:51:55;44.60;;;18.37;;
21095;SDS011;10706;49.036;12.112;2024-03-07T00:54:23;38.67;;;15.93;;
21095;SDS011;10706;49.036;12.112;2024-03-07T00:56:49;42.33;;;16.93;;
21095;SDS011;10706;49.036;12.112;2024-03-07T00:59:15;40.03;;;16.03;;
21095;SDS011;10706;49.036;12.112;2024-03-07T01:01:42;41.90;;;17.50;;
21095;SDS011;10706;49.036;12.112;2024-03-07T01:04:07;45.43;;;17.57;;
21095;SDS011;10706;49.036;12.112;2024-03-07T01:06:37;45.67;;;17.00;;
21095;SDS011;10706;49.036;12.112;2024-03-07T01:09:03;42.00;;;15.40;;
21095;SDS011;10706;49.036;12.112;2024-03-07T01:11:29;40.20;;;15.53;;
21095;SDS011;10706;49.036;12.112;2024-03-07T01:13:55;45.63;;;18.80;;
21095;SDS011;10706;49.036;12.112;2024-03-07T01:16:22;39.37;;;16.50;;
21095;SDS011;10706;49.036;12.112;2024-03-07T01:18:48;37.40;;;15.53;;
21095;SDS011;10706;49.036;12.112;2024-03-07T01:21:14;45.87;;;18.17;;
21095;SDS011;10706;49.036;12.112;2024-03-07T01:23:40;45.13;;;18.63;;
21095;SDS011;10706;49.036;12.112;2024-03-07T01:26:06;37.40;;;17.27;;
21095;SDS011;10706;49.036;12.112;2024-03-07T01:28:33;43.40;;;17.90;;
21095;SDS011;10706;49.036;12.112;2024-03-07T01:30:59;37.67;;;16.80;;
21095;SDS011;10706;49.036;12.112;2024-03-07T01:33:25;43.73;;;18.03;;
21095;SDS011;10706;49.036;12.112;2024-03-07T01:35:52;43.57;;;18.53;;
21095;SDS011;10706;49.036;12.112;2024-03-07T01:38:18;48.53;;;19.43;;
21095;SDS011;10706;49.036;12.112;2024-03-07T01:40:44;45.73;;;18.27;;
21095;SDS011;10706;49.036;12.112;2024-03-07T01:43:10;41.33;;;19.17;;
21095;SDS011;10706;49.036;12.112;2024-03-07T01:45:36;44.17;;;18.37;;
21095;SDS011;10706;49.036;12.112;2024-03-07T01:48:03;47.20;;;18.50;;
21095;SDS011;10706;49.036;12.112;2024-03-07T01:50:31;46.20;;;19.97;;
21095;SDS011;10706;49.036;12.112;2024-03-07T01:52:57;41.77;;;18.20;;
21095;SDS011;10706;49.036;12.112;2024-03-07T01:55:26;43.90;;;16.93;;
21095;SDS011;10706;49.036;12.112;2024-03-07T01:57:54;44.00;;;19.40;;
21095;SDS011;10706;49.036;12.112;2024-03-07T02:00:25;49.03;;;18.73;;
21095;SDS011;10706;49.036;12.112;2024-03-07T02:02:51;51.47;;;19.40;;
21095;SDS011;10706;49.036;12.112;2024-03-07T02:05:18;45.57;;;18.97;;
21095;SDS011;10706;49.036;12.112;2024-03-07T02:07:45;45.87;;;17.67;;
21095;SDS011;10706;49.036;12.112;2024-03-07T02:10:12;43.43;;;16.87;;
21095;SDS011;10706;49.036;12.112;2024-03-07T02:12:38;41.60;;;18.23;;
21095;SDS011;10706;49.036;12.112;2024-03-07T02:15:04;40.63;;;18.37;;
21095;SDS011;10706;49.036;12.112;2024-03-07T02:17:31;43.47;;;18.23;;
21095;SDS011;10706;49.036;12.112;2024-03-07T02:19:57;46.80;;;18.23;;
21095;SDS011;10706;49.036;12.112;2024-03-07T02:22:23;41.50;;;17.77;;
21095;SDS011;10706;49.036;12.112;2024-03-07T02:24:51;41.23;;;18.53;;
21095;SDS011;10706;49.036;12.112;2024-03-07T02:27:18;41.07;;;17.57;;
21095;SDS011;10706;49.036;12.112;2024-03-07T02:29:43;45.33;;;17.90;;
21095;SDS011;10706;49.036;12.112;2024-03-07T02:32:10;45.00;;;19.03;;
21095;SDS011;10706;49.036;12.112;2024-03-07T02:34:36;41.50;;;16.33;;
21095;SDS011;10706;49.036;12.112;2024-03-07T02:37:03;45.63;;;17.07;;
21095;SDS011;10706;49.036;12.112;2024-03-07T02:39:29;53.70;;;18.00;;
21095;SDS011;10706;49.036;12.112;2024-03-07T02:41:55;49.40;;;20.03;;
21095;SDS011;10706;49.036;12.112;2024-03-07T02:44:21;45.57;;;17.80;;
21095;SDS011;10706;49.036;12.112;2024-03-07T02:46:47;48.23;;;19.23;;
21095;SDS011;10706;49.036;12.112;2024-03-07T02:49:13;45.83;;;18.23;;
21095;SDS011;10706;49.036;12.112;2024-03-07T02:51:39;43.83;;;18.57;;
21095;SDS011;10706;49.036;12.112;2024-03-07T02:54:07;52.40;;;18.40;;
21095;SDS011;10706;49.036;12.112;2024-03-07T02:56:33;44.23;;;18.90;;
21095;SDS011;10706;49.036;12.112;2024-03-07T02:59:00;43.43;;;19.00;;
21095;SDS011;10706;49.036;12.112;2024-03-07T03:01:26;38.20;;;17.40;;
21095;SDS011;10706;49.036;12.112;2024-03-07T03:03:52;48.50;;;18.93;;
21095;SDS011;10706;49.036;12.112;2024-03-07T03:06:18;44.83;;;19.10;;
21095;SDS011;10706;49.036;12.112;2024-03-07T03:08:47;48.00;;;18.00;;
21095;SDS011;10706;49.036;12.112;2024-03-07T03:11:13;48.37;;;19.93;;
21095;SDS011;10706;49.036;12.112;2024-03-07T03:13:41;49.10;;;19.80;;
21095;SDS011;10706;49.036;12.112;2024-03-07T03:16:07;46.17;;;18.30;;
21095;SDS011;10706;49.036;12.112;2024-03-07T03:18:34;44.57;;;18.57;;
21095;SDS011;10706;49.036;12.112;2024-03-07T03:21:01;50.33;;;19.67;;
21095;SDS011;10706;49.036;12.112;2024-03-07T03:23:28;46.30;;;21.00;;
21095;SDS011;10706;49.036;12.112;2024-03-07T03:25:54;46.80;;;20.33;;
21095;SDS011;10706;49.036;12.112;2024-03-07T03:28:20;48.67;;;19.73;;
21095;SDS011;10706;49.036;12.112;2024-03-07T03:30:48;50.97;;;18.97;;
21095;SDS011;10706;49.036;12.112;2024-03-07T03:33:15;53.37;;;19.87;;
21095;SDS011;10706;49.036;12.112;2024-03-07T03:35:41;48.13;;;19.77;;
21095;SDS011;10706;49.036;12.112;2024-03-07T03:38:07;50.70;;;21.70;;
21095;SDS011;10706;49.036;12.112;2024-03-07T03:40:34;45.07;;;19.90;;
21095;SDS011;10706;49.036;12.112;2024-03-07T03:43:00;46.80;;;18.67;;
21095;SDS011;10706;49.036;12.112;2024-03-07T03:45:26;49.40;;;21.50;;
21095;SDS011;10706;49.036;12.112;2024-03-07T03:47:52;43.07;;;18.23;;
21095;SDS011;10706;49.036;12.112;2024-03-07T03:50:19;44.33;;;17.97;;
21095;SDS011;10706;49.036;12.112;2024-03-07T03:52:48;48.07;;;19.27;;
21095;SDS011;10706;49.036;12.112;2024-03-07T03:55:14;53.33;;;19.27;;
21095;SDS011;10706;49.036;12.112;2024-03-07T03:57:41;45.93;;;18.60;;
21095;SDS011;10706;49.036;12.112;2024-03-07T04:00:09;49.17;;;19.50;;
21095;SDS011;10706;49.036;12.112;2024-03-07T04:02:39;44.07;;;17.87;;
21095;SDS011;10706;49.036;12.112;2024-03-07T04:05:06;46.33;;;18.97;;
21095;SDS011;10706;49.036;12.112;2024-03-07T04:07:34;50.83;;;18.80;;
21095;SDS011;10706;49.036;12.112;2024-03-07T04:10:01;52.10;;;18.20;;
21095;SDS011;10706;49.036;12.112;2024-03-07T04:12:36;42.30;;;17.60;;
21095;SDS011;10706;49.036;12.112;2024-03-07T04:15:05;39.47;;;17.47;;
21095;SDS011;10706;49.036;12.112;2024-03-07T04:17:41;42.73;;;17.47;;
21095;SDS011;10706;49.036;12.112;2024-03-07T04:20:08;43.27;;;17.93;;
21095;SDS011;10706;49.036;12.112;2024-03-07T04:22:38;45.30;;;18.10;;
21095;SDS011;10706;49.036;12.112;2024-03-07T04:25:05;45.60;;;18.43;;
21095;SDS011;10706;49.036;12.112;2024-03-07T04:27:33;44.40;;;17.40;;
21095;SDS011;10706;49.036;12.112;2024-03-07T04:30:08;42.83;;;18.40;;
21095;SDS011;10706;49.036;12.112;2024-03-07T04:32:40;53.20;;;19.43;;
21095;SDS011;10706;49.036;12.112;2024-03-07T04:35:07;41.97;;;17.50;;
21095;SDS011;10706;49.036;12.112;2024-03-07T04:37:35;48.37;;;18.87;;
21095;SDS011;10706;49.036;12.112;2024-03-07T04:40:08;45.03;;;18.77;;
21095;SDS011;10706;49.036;12.112;2024-03-07T04:42:47;42.43;;;19.33;;
21095;SDS011;10706;49.036;12.112;2024-03-07T04:45:14;46.93;;;20.20;;
21095;SDS011;10706;49.036;12.112;2024-03-07T04:47:40;42.77;;;18.67;;
21095;SDS011;10706;49.036;12.112;2024-03-07T04:50:08;47.10;;;19.53;;
21095;SDS011;10706;49.036;12.112;2024-03-07T04:52:37;54.00;;;19.60;;
21095;SDS011;10706;49.036;12.112;2024-03-07T04:55:05;48.93;;;19.83;;
21095;SDS011;10706;49.036;12.112;2024-03-07T04:57:38;40.73;;;18.77;;
21095;SDS011;10706;49.036;12.112;2024-03-07T05:00:11;41.10;;;17.00;;
21095;SDS011;10706;49.036;12.112;2024-03-07T05:02:43;41.73;;;17.87;;
21095;SDS011;10706;49.036;12.112;2024-03-07T05:05:11;45.90;;;19.07;;
21095;SDS011;10706;49.036;12.112;2024-03-07T05:07:37;43.27;;;18.80;;
21095;SDS011;10706;49.036;12.112;2024-03-07T05:10:05;41.87;;;17.43;;
21095;SDS011;10706;49.036;12.112;2024-03-07T05:12:33;43.00;;;17.97;;
21095;SDS011;10706;49.036;12.112;2024-03-07T05:14:59;43.30;;;17.60;;
21095;SDS011;10706;49.036;12.112;2024-03-07T05:17:25;45.33;;;17.50;;
21095;SDS011;10706;49.036;12.112;2024-03-07T05:19:51;43.73;;;17.03;;
21095;SDS011;10706;49.036;12.112;2024-03-07T05:22:17;45.43;;;18.17;;
21095;SDS011;10706;49.036;12.112;2024-03-07T05:24:45;46.17;;;19.03;;
21095;SDS011;10706;49.036;12.112;2024-03-07T05:27:11;43.57;;;17.90;;
21095;SDS011;10706;49.036;12.112;2024-03-07T05:29:37;43.10;;;17.17;;
21095;SDS011;10706;49.036;12.112;2024-03-07T05:32:20;42.77;;;17.93;;
21095;SDS011;10706;49.036;12.112;2024-03-07T05:34:47;41.17;;;18.73;;
21095;SDS011;10706;49.036;12.112;2024-03-07T05:37:13;46.40;;;17.60;;
21095;SDS011;10706;49.036;12.112;2024-03-07T05:39:39;41.40;;;16.43;;
21095;SDS011;10706;49.036;12.112;2024-03-07T05:42:05;44.97;;;17.60;;
21095;SDS011;10706;49.036;12.112;2024-03-07T05:44:32;47.07;;;18.47;;
21095;SDS011;10706;49.036;12.112;2024-03-07T05:46:58;50.90;;;18.53;;
21095;SDS011;10706;49.036;12.112;2024-03-07T05:49:24;49.23;;;19.83;;
21095;SDS011;10706;49.036;12.112;2024-03-07T05:51:50;45.83;;;18.03;;
21095;SDS011;10706;49.036;12.112;2024-03-07T05:54:16;44.70;;;17.93;;
21095;SDS011;10706;49.036;12.112;2024-03-07T05:56:42;47.30;;;19.17;;
21095;SDS011;10706;49.036;12.112;2024-03-07T05:59:08;48.40;;;18.93;;
21095;SDS011;10706;49.036;12.112;2024-03-07T06:01:37;49.87;;;17.97;;
21095;SDS011;10706;49.036;12.112;2024-03-07T06:04:06;43.17;;;16.97;;
21095;SDS011;10706;49.036;12.112;2024-03-07T06:06:35;40.07;;;16.57;;
21095;SDS011;10706;49.036;12.112;2024-03-07T06:09:07;44.13;;;17.13;;
21095;SDS011;10706;49.036;12.112;2024-03-07T06:11:35;39.90;;;17.37;;
21095;SDS011;10706;49.036;12.112;2024-03-07T06:14:02;39.27;;;16.90;;
21095;SDS011;10706;49.036;12.112;2024-03-07T06:16:30;42.30;;;15.07;;
21095;SDS011;10706;49.036;12.112;2024-03-07T06:19:01;42.40;;;18.40;;
21095;SDS011;10706;49.036;12.112;2024-03-07T06:21:28;39.47;;;17.47;;
21095;SDS011;10706;49.036;12.112;2024-03-07T06:23:58;43.93;;;17.57;;
21095;SDS011;10706;49.036;12.112;2024-03-07T06:26:28;40.23;;;16.87;;
21095;SDS011;10706;49.036;12.112;2024-03-07T06:29:15;40.57;;;16.67;;
21095;SDS011;10706;49.036;12.112;2024-03-07T06:31:42;38.53;;;16.50;;
21095;SDS011;10706;49.036;12.112;2024-03-07T06:34:11;43.03;;;17.37;;
21095;SDS011;10706;49.036;12.112;2024-03-07T06:36:38;40.00;;;15.20;;
21095;SDS011;10706;49.036;12.112;2024-03-07T06:39:07;43.07;;;16.83;;
21095;SDS011;10706;49.036;12.112;2024-03-07T06:41:35;37.30;;;16.30;;
21095;SDS011;10706;49.036;12.112;2024-03-07T06:44:01;45.37;;;17.30;;
21095;SDS011;10706;49.036;12.112;2024-03-07T06:46:28;41.43;;;17.63;;
21095;SDS011;10706;49.036;12.112;2024-03-07T06:48:54;38.23;;;15.67;;
21095;SDS011;10706;49.036;12.112;2024-03-07T06:51:21;40.07;;;15.77;;
21095;SDS011;10706;49.036;12.112;2024-03-07T06:53:47;41.00;;;16.87;;
21095;SDS011;10706;49.036;12.112;2024-03-07T06:56:18;45.57;;;17.53;;
21095;SDS011;10706;49.036;12.112;2024-03-07T06:58:44;41.37;;;17.27;;
21095;SDS011;10706;49.036;12.112;2024-03-07T07:01:13;40.30;;;16.43;;
21095;SDS011;10706;49.036;12.112;2024-03-07T07:03:40;37.53;;;15.63;;
21095;SDS011;10706;49.036;12.112;2024-03-07T07:06:10;41.67;;;17.33;;
21095;SDS011;10706;49.036;12.112;2024-03-07T07:08:36;43.87;;;17.13;;
21095;SDS011;10706;49.036;12.112;2024-03-07T07:11:03;41.73;;;16.90;;
21095;SDS011;10706;49.036;12.112;2024-03-07T07:13:29;39.60;;;16.27;;
21095;SDS011;10706;49.036;12.112;2024-03-07T07:15:56;34.90;;;14.97;;
21095;SDS011;10706;49.036;12.112;2024-03-07T07:18:22;41.10;;;15.27;;
21095;SDS011;10706;49.036;12.112;2024-03-07T07:20:49;38.80;;;16.03;;
21095;SDS011;10706;49.036;12.112;2024-03-07T07:23:17;36.27;;;15.57;;
21095;SDS011;10706;49.036;12.112;2024-03-07T07:25:43;38.10;;;14.97;;
21095;SDS011;10706;49.036;12.112;2024-03-07T07:28:11;40.53;;;15.47;;
21095;SDS011;10706;49.036;12.112;2024-03-07T07:30:37;38.80;;;16.60;;
21095;SDS011;10706;49.036;12.112;2024-03-07T07:33:03;40.70;;;13.70;;
21095;SDS011;10706;49.036;12.112;2024-03-07T07:35:29;33.53;;;14.67;;
21095;SDS011;10706;49.036;12.112;2024-03-07T07:37:56;39.77;;;14.83;;
21095;SDS011;10706;49.036;12.112;2024-03-07T07:40:23;36.73;;;15.93;;
21095;SDS011;10706;49.036;12.112;2024-03-07T07:42:51;39.27;;;14.40;;
21095;SDS011;10706;49.036;12.112;2024-03-07T07:45:18;40.43;;;16.20;;
21095;SDS011;10706;49.036;12.112;2024-03-07T07:47:47;41.40;;;14.87;;
21095;SDS011;10706;49.036;12.112;2024-03-07T07:50:15;39.57;;;15.50;;
21095;SDS011;10706;49.036;12.112;2024-03-07T07:52:44;38.27;;;14.50;;
21095;SDS011;10706;49.036;12.112;2024-03-07T07:55:21;35.40;;;13.33;;
21095;SDS011;10706;49.036;12.112;2024-03-07T07:57:55;33.77;;;13.03;;
21095;SDS011;10706;49.036;12.112;2024-03-07T08:00:24;33.87;;;14.40;;
21095;SDS011;10706;49.036;12.112;2024-03-07T08:02:56;36.77;;;13.83;;
21095;SDS011;10706;49.036;12.112;2024-03-07T08:05:32;37.73;;;14.60;;
21095;SDS011;10706;49.036;12.112;2024-03-07T08:08:04;34.17;;;14.67;;
21095;SDS011;10706;49.036;12.112;2024-03-07T08:10:32;39.63;;;14.37;;
21095;SDS011;10706;49.036;12.112;2024-03-07T08:13:00;34.20;;;13.93;;
21095;SDS011;10706;49.036;12.112;2024-03-07T08:15:29;35.27;;;14.57;;
21095;SDS011;10706;49.036;12.112;2024-03-07T08:17:56;33.30;;;13.27;;
21095;SDS011;10706;49.036;12.112;2024-03-07T08:20:24;30.43;;;13.20;;
21095;SDS011;10706;49.036;12.112;2024-03-07T08:22:51;36.90;;;14.20;;
21095;SDS011;10706;49.036;12.112;2024-03-07T08:25:21;33.27;;;13.97;;
21095;SDS011;10706;49.036;12.112;2024-03-07T08:27:52;29.43;;;11.37;;
21095;SDS011;10706;49.036;12.112;2024-03-07T08:30:19;34.27;;;13.40;;
21095;SDS011;10706;49.036;12.112;2024-03-07T08:32:47;26.43;;;11.87;;
21095;SDS011;10706;49.036;12.112;2024-03-07T08:35:17;38.13;;;13.60;;
21095;SDS011;10706;49.036;12.112;2024-03-07T08:37:44;32.30;;;13.37;;
21095;SDS011;10706;49.036;12.112;2024-03-07T08:40:17;33.33;;;12.27;;
21095;SDS011;10706;49.036;12.112;2024-03-07T08:42:45;31.07;;;12.43;;
21095;SDS011;10706;49.036;12.112;2024-03-07T08:45:12;29.93;;;12.33;;
21095;SDS011;10706;49.036;12.112;2024-03-07T08:47:44;31.47;;;12.10;;
21095;SDS011;10706;49.036;12.112;2024-03-07T08:50:11;34.83;;;11.63;;
21095;SDS011;10706;49.036;12.112;2024-03-07T08:52:38;31.43;;;12.47;;
21095;SDS011;10706;49.036;12.112;2024-03-07T08:55:05;33.20;;;11.97;;
21095;SDS011;10706;49.036;12.112;2024-03-07T08:57:35;31.90;;;12.60;;
21095;SDS011;10706;49.036;12.112;2024-03-07T09:00:02;30.73;;;12.90;;
21095;SDS011;10706;49.036;12.112;2024-03-07T09:02:36;34.67;;;12.70;;
21095;SDS011;10706;49.036;12.112;2024-03-07T09:05:03;33.37;;;11.43;;
21095;SDS011;10706;49.036;12.112;2024-03-07T09:07:31;29.07;;;11.70;;
21095;SDS011;10706;49.036;12.112;2024-03-07T09:09:57;26.03;;;10.80;;
21095;SDS011;10706;49.036;12.112;2024-03-07T09:12:23;31.27;;;11.87;;
21095;SDS011;10706;49.036;12.112;2024-03-07T09:14:53;30.23;;;11.57;;
21095;SDS011;10706;49.036;12.112;2024-03-07T09:17:21;28.40;;;9.43;;
21095;SDS011;10706;49.036;12.112;2024-03-07T09:19:46;31.67;;;12.17;;
21095;SDS011;10706;49.036;12.112;2024-03-07T09:22:12;32.23;;;13.70;;
21095;SDS011;10706;49.036;12.112;2024-03-07T09:24:38;32.47;;;12.23;;
21095;SDS011;10706;49.036;12.112;2024-03-07T09:27:04;31.47;;;11.33;;
21095;SDS011;10706;49.036;12.112;2024-03-07T09:29:30;34.80;;;12.10;;
21095;SDS011;10706;49.036;12.112;2024-03-07T09:31:56;32.13;;;13.10;;
21095;SDS011;10706;49.036;12.112;2024-03-07T09:34:23;33.53;;;13.77;;
21095;SDS011;10706;49.036;12.112;2024-03-07T09:36:50;30.27;;;11.60;;
21095;SDS011;10706;49.036;12.112;2024-03-07T09:39:17;34.77;;;12.30;;
21095;SDS011;10706;49.036;12.112;2024-03-07T09:41:43;28.43;;;11.87;;
21095;SDS011;10706;49.036;12.112;2024-03-07T09:44:10;32.70;;;11.67;;
21095;SDS011;10706;49.036;12.112;2024-03-07T09:46:42;34.70;;;12.53;;
21095;SDS011;10706;49.036;12.112;2024-03-07T09:49:10;29.13;;;12.30;;
21095;SDS011;10706;49.036;12.112;2024-03-07T09:51:38;30.17;;;13.07;;
21095;SDS011;10706;49.036;12.112;2024-03-07T09:54:04;29.07;;;11.97;;
21095;SDS011;10706;49.036;12.112;2024-03-07T09:56:31;26.87;;;10.63;;
21095;SDS011;10706;49.036;12.112;2024-03-07T09:58:57;29.93;;;11.50;;
21095;SDS011;10706;49.036;12.112;2024-03-07T10:01:25;27.07;;;11.07;;
21095;SDS011;10706;49.036;12.112;2024-03-07T10:03:52;27.53;;;11.17;;
21095;SDS011;10706;49.036;12.112;2024-03-07T10:06:37;24.57;;;10.50;;
21095;SDS011;10706;49.036;12.112;2024-03-07T10:09:04;30.43;;;11.00;;
21095;SDS011;10706;49.036;12.112;2024-03-07T10:11:32;26.47;;;10.23;;
21095;SDS011;10706;49.036;12.112;2024-03-07T10:14:02;30.83;;;10.43;;
21095;SDS011;10706;49.036;12.112;2024-03-07T10:16:30;24.30;;;9.97;;
21095;SDS011;10706;49.036;12.112;2024-03-07T10:18:57;23.27;;;8.77;;
21095;SDS011;10706;49.036;12.112;2024-03-07T10:21:25;25.50;;;10.00;;
21095;SDS011;10706;49.036;12.112;2024-03-07T10:24:03;24.87;;;9.80;;
21095;SDS011;10706;49.036;12.112;2024-03-07T10:26:33;25.10;;;9.43;;
21095;SDS011;10706;49.036;12.112;2024-03-07T10:29:00;22.83;;;10.53;;
21095;SDS011;10706;49.036;12.112;2024-03-07T10:31:33;27.13;;;10.40;;
21095;SDS011;10706;49.036;12.112;2024-03-07T10:34:02;26.27;;;9.63;;
21095;SDS011;10706;49.036;12.112;2024-03-07T10:36:32;23.20;;;9.37;;
21095;SDS011;10706;49.036;12.112;2024-03-07T10:38:58;25.07;;;10.03;;
21095;SDS011;10706;49.036;12.112;2024-03-07T10:41:36;21.67;;;8.50;;
21095;SDS011;10706;49.036;12.112;2024-03-07T10:44:08;27.43;;;9.83;;
21095;SDS011;10706;49.036;12.112;2024-03-07T10:46:38;23.80;;;9.07;;
21095;SDS011;10706;49.036;12.112;2024-03-07T10:49:05;25.30;;;9.37;;
21095;SDS011;10706;49.036;12.112;2024-03-07T10:51:44;19.47;;;8.80;;
21095;SDS011;10706;49.036;12.112;2024-03-07T10:54:20;22.67;;;9.63;;
21095;SDS011;10706;49.036;12.112;2024-03-07T10:59:49;23.70;;;10.33;;
21095;SDS011;10706;49.036;12.112;2024-03-07T11:05:10;27.03;;;9.63;;
21095;SDS011;10706;49.036;12.112;2024-03-07T11:07:38;22.97;;;9.87;;
21095;SDS011;10706;49.036;12.112;2024-03-07T11:10:04;25.00;;;10.43;;
21095;SDS011;10706;49.036;12.112;2024-03-07T11:12:36;23.90;;;8.73;;
21095;SDS011;10706;49.036;12.112;2024-03-07T11:15:06;26.17;;;9.93;;
21095;SDS011;10706;49.036;12.112;2024-03-07T11:17:41;18.80;;;7.87;;
21095;SDS011;10706;49.036;12.112;2024-03-07T11:20:18;26.70;;;8.90;;
21095;SDS011;10706;49.036;12.112;2024-03-07T11:22:46;24.47;;;8.90;;
21095;SDS011;10706;49.036;12.112;2024-03-07T11:25:12;21.73;;;8.97;;
21095;SDS011;10706;49.036;12.112;2024-03-07T11:27:38;24.10;;;9.07;;
21095;SDS011;10706;49.036;12.112;2024-03-07T11:30:07;26.17;;;9.10;;
21095;SDS011;10706;49.036;12.112;2024-03-07T11:32:35;22.20;;;9.27;;
21095;SDS011;10706;49.036;12.112;2024-03-07T11:35:11;30.20;;;9.43;;
21095;SDS011;10706;49.036;12.112;2024-03-07T11:37:43;25.27;;;9.47;;
21095;SDS011;10706;49.036;12.112;2024-03-07T11:40:13;20.17;;;8.70;;
21095;SDS011;10706;49.036;12.112;2024-03-07T11:42:46;20.30;;;8.90;;
21095;SDS011;10706;49.036;12.112;2024-03-07T11:45:13;19.83;;;8.40;;
21095;SDS011;10706;49.036;12.112;2024-03-07T11:48:06;22.57;;;8.80;;
21095;SDS011;10706;49.036;12.112;2024-03-07T11:50:33;17.10;;;7.70;;
21095;SDS011;10706;49.036;12.112;2024-03-07T11:53:02;23.07;;;8.90;;
21095;SDS011;10706;49.036;12.112;2024-03-07T11:55:33;21.23;;;8.87;;
21095;SDS011;10706;49.036;12.112;2024-03-07T11:58:10;29.13;;;10.07;;
21095;SDS011;10706;49.036;12.112;2024-03-07T12:00:46;24.43;;;9.27;;
21095;SDS011;10706;49.036;12.112;2024-03-07T12:03:22;19.30;;;6.23;;
21095;SDS011;10706;49.036;12.112;2024-03-07T12:05:50;20.97;;;8.80;;
21095;SDS011;10706;49.036;12.112;2024-03-07T12:08:17;21.37;;;8.90;;
21095;SDS011;10706;49.036;12.112;2024-03-07T12:10:47;22.20;;;8.50;;
21095;SDS011;10706;49.036;12.112;2024-03-07T12:13:18;20.40;;;8.13;;
21095;SDS011;10706;49.036;12.112;2024-03-07T12:15:45;19.23;;;7.83;;
21095;SDS011;10706;49.036;12.112;2024-03-07T12:18:11;19.43;;;7.93;;
21095;SDS011;10706;49.036;12.112;2024-03-07T12:20:42;20.70;;;8.23;;
21095;SDS011;10706;49.036;12.112;2024-03-07T12:23:15;24.08;;;8.85;;
21095;SDS011;10706;49.036;12.112;2024-03-07T12:25:44;25.63;;;9.40;;
21095;SDS011;10706;49.036;12.112;2024-03-07T12:28:14;18.93;;;7.60;;
21095;SDS011;10706;49.036;12.112;2024-03-07T12:30:54;17.15;;;7.15;;
21095;SDS011;10706;49.036;12.112;2024-03-07T12:33:21;20.25;;;7.47;;
21095;SDS011;10706;49.036;12.112;2024-03-07T12:35:50;19.57;;;7.73;;
21095;SDS011;10706;49.036;12.112;2024-03-07T12:38:24;20.07;;;8.10;;
21095;SDS011;10706;49.036;12.112;2024-03-07T12:41:06;18.95;;;7.53;;
21095;SDS011;10706;49.036;12.112;2024-03-07T12:43:39;20.17;;;7.93;;
21095;SDS011;10706;49.036;12.112;2024-03-07T12:46:11;20.02;;;7.75;;
21095;SDS011;10706;49.036;12.112;2024-03-07T12:48:38;20.43;;;7.90;;
21095;SDS011;10706;49.036;12.112;2024-03-07T12:51:04;19.87;;;7.87;;
21095;SDS011;10706;49.036;12.112;2024-03-07T12:53:31;19.03;;;7.40;;
21095;SDS011;10706;49.036;12.112;2024-03-07T12:56:00;19.97;;;7.97;;
21095;SDS011;10706;49.036;12.112;2024-03-07T12:58:27;17.63;;;7.43;;
21095;SDS011;10706;49.036;12.112;2024-03-07T13:00:54;17.40;;;7.40;;
21095;SDS011;10706;49.036;12.112;2024-03-07T13:03:20;24.73;;;8.20;;
21095;SDS011;10706;49.036;12.112;2024-03-07T13:05:47;25.50;;;9.33;;
21095;SDS011;10706;49.036;12.112;2024-03-07T13:08:13;19.97;;;8.30;;
21095;SDS011;10706;49.036;12.112;2024-03-07T13:10:39;21.50;;;8.53;;
21095;SDS011;10706;49.036;12.112;2024-03-07T13:13:07;22.53;;;9.07;;
21095;SDS011;10706;49.036;12.112;2024-03-07T13:15:35;22.07;;;8.73;;
21095;SDS011;10706;49.036;12.112;2024-03-07T13:18:03;21.27;;;8.30;;
21095;SDS011;10706;49.036;12.112;2024-03-07T13:20:30;24.20;;;9.60;;
21095;SDS011;10706;49.036;12.112;2024-03-07T13:22:56;21.17;;;7.70;;
21095;SDS011;10706;49.036;12.112;2024-03-07T13:25:25;23.67;;;9.67;;
21095;SDS011;10706;49.036;12.112;2024-03-07T13:30:33;22.27;;;7.87;;
21095;SDS011;10706;49.036;12.112;2024-03-07T13:33:01;20.40;;;7.37;;
21095;SDS011;10706;49.036;12.112;2024-03-07T13:35:28;21.77;;;7.67;;
21095;SDS011;10706;49.036;12.112;2024-03-07T13:37:54;22.20;;;8.70;;
21095;SDS011;10706;49.036;12.112;2024-03-07T13:40:25;17.00;;;6.87;;
21095;SDS011;10706;49.036;12.112;2024-03-07T13:42:52;22.70;;;8.27;;
21095;SDS011;10706;49.036;12.112;2024-03-07T13:45:28;19.63;;;7.57;;
21095;SDS011;10706;49.036;12.112;2024-03-07T13:48:04;21.23;;;8.00;;
21095;SDS011;10706;49.036;12.112;2024-03-07T13:50:35;22.17;;;8.73;;
21095;SDS011;10706;49.036;12.112;2024-03-07T13:53:13;21.80;;;8.07;;
21095;SDS011;10706;49.036;12.112;2024-03-07T14:17:58;21.23;;;7.80;;
21095;SDS011;10706;49.036;12.112;2024-03-07T14:20:59;20.27;;;8.50;;
21095;SDS011;10706;49.036;12.112;2024-03-07T14:27:06;23.60;;;9.37;;
21095;SDS011;10706;49.036;12.112;2024-03-07T14:32:51;15.50;;;7.10;;
21095;SDS011;10706;49.036;12.112;2024-03-07T14:35:28;21.17;;;9.10;;
21095;SDS011;10706;49.036;12.112;2024-03-07T14:40:53;18.50;;;7.30;;
21095;SDS011;10706;49.036;12.112;2024-03-07T14:43:20;19.90;;;7.70;;
21095;SDS011;10706;49.036;12.112;2024-03-07T14:45:47;22.37;;;7.37;;
21095;SDS011;10706;49.036;12.112;2024-03-07T14:48:17;20.30;;;7.77;;
21095;SDS011;10706;49.036;12.112;2024-03-07T14:50:43;19.30;;;7.87;;
21095;SDS011;10706;49.036;12.112;2024-03-07T14:53:11;16.93;;;7.43;;
21095;SDS011;10706;49.036;12.112;2024-03-07T14:55:40;19.77;;;7.43;;
21095;SDS011;10706;49.036;12.112;2024-03-07T14:58:06;23.63;;;8.07;;